createdAt,value
2022-11-27T00:04:51.068Z,9.68
2022-11-27T00:09:54.528Z,11.07
2022-11-27T00:14:57.628Z,12.67
2022-11-27T00:20:00.822Z,10.55
2022-11-27T00:25:04.112Z,9.57
2022-11-27T00:30:08.226Z,11.70
2022-11-27T00:35:11.723Z,10.73
2022-11-27T00:40:15.809Z,10.93
2022-11-27T00:45:18.897Z,13.90
2022-11-27T00:50:22.342Z,12.03
2022-11-27T00:55:26.367Z,10.48
2022-11-27T01:00:29.536Z,10.55
2022-11-27T01:05:33.343Z,9.67
2022-11-27T01:10:36.593Z,9.77
2022-11-27T01:15:40.652Z,14.07
2022-11-27T01:20:43.792Z,16.02
2022-11-27T01:25:47.153Z,10.30
2022-11-27T01:30:51.306Z,10.57
2022-11-27T01:35:59.519Z,9.57
2022-11-27T01:41:09.157Z,11.93
2022-11-27T01:46:33.554Z,8.18
2022-11-27T01:51:41.092Z,12.88
2022-11-27T01:56:46.679Z,11.03
2022-11-27T02:01:50.424Z,9.93
2022-11-27T02:06:55.916Z,11.10
2022-11-27T02:12:13.907Z,11.23
2022-11-27T02:18:12.127Z,11.68
2022-11-27T02:23:39.773Z,10.83
2022-11-27T02:29:06.292Z,10.60
2022-11-27T02:34:15.599Z,12.97
2022-11-27T02:39:24.408Z,12.45
2022-11-27T02:44:33.127Z,9.23
2022-11-27T02:49:38.325Z,10.27
2022-11-27T02:54:44.313Z,11.15
2022-11-27T02:59:48.996Z,8.70
2022-11-27T03:04:56.366Z,8.55
2022-11-27T03:10:06.531Z,11.23
2022-11-27T03:15:10.200Z,8.97
2022-11-27T03:20:33.182Z,8.50
2022-11-27T03:25:36.366Z,9.43
2022-11-27T03:30:41.396Z,8.18
2022-11-27T03:35:44.542Z,9.35
2022-11-27T03:41:08.877Z,11.27
2022-11-27T03:46:24.316Z,9.30
2022-11-27T03:51:53.387Z,5.70
2022-11-27T03:57:21.182Z,11.90
2022-11-27T04:02:40.926Z,15.20
2022-11-27T04:07:44.242Z,11.10
2022-11-27T04:12:48.443Z,13.18
2022-11-27T04:17:51.592Z,13.40
2022-11-27T04:22:54.743Z,12.05
2022-11-27T04:27:58.123Z,11.60
2022-11-27T04:33:01.230Z,13.67
2022-11-27T04:38:04.296Z,12.75
2022-11-27T04:43:07.574Z,11.23
2022-11-27T04:48:10.877Z,9.20
2022-11-27T04:53:14.102Z,14.00
2022-11-27T04:58:17.482Z,14.73
2022-11-27T05:03:20.656Z,11.80
2022-11-27T05:08:24.891Z,11.93
2022-11-27T05:13:28.241Z,10.52
2022-11-27T05:18:31.992Z,8.00
2022-11-27T05:23:35.436Z,9.63
2022-11-27T05:28:38.616Z,14.02
2022-11-27T05:33:41.696Z,10.47
2022-11-27T05:38:44.886Z,11.60
2022-11-27T05:43:48.210Z,17.67
2022-11-27T05:48:51.390Z,14.57
2022-11-27T05:53:54.516Z,14.25
2022-11-27T05:58:58.787Z,13.27
2022-11-27T06:04:01.992Z,9.57
2022-11-27T06:09:10.938Z,17.05
2022-11-27T06:14:15.994Z,13.03
2022-11-27T06:19:19.356Z,10.40
2022-11-27T06:24:22.633Z,12.70
2022-11-27T06:29:25.755Z,12.65
2022-11-27T06:34:28.980Z,15.95
2022-11-27T06:39:32.185Z,20.43
2022-11-27T06:44:35.584Z,13.75
2022-11-27T06:49:38.867Z,13.27
2022-11-27T06:54:42.158Z,10.68
2022-11-27T06:59:46.633Z,14.20
2022-11-27T07:04:50.472Z,12.27
2022-11-27T07:09:53.759Z,13.82
2022-11-27T07:15:03.884Z,10.03
2022-11-27T07:20:08.592Z,12.65
2022-11-27T07:25:11.741Z,14.80
2022-11-27T07:30:16.409Z,17.87
2022-11-27T07:35:19.645Z,15.77
2022-11-27T07:40:22.800Z,15.17
2022-11-27T07:45:26.136Z,12.63
2022-11-27T07:50:29.330Z,17.25
2022-11-27T07:55:32.476Z,12.97
2022-11-27T08:00:36.237Z,14.65
2022-11-27T08:05:39.380Z,14.50
2022-11-27T08:10:42.584Z,20.65
2022-11-27T08:15:46.421Z,11.43
2022-11-27T08:20:49.510Z,14.17
2022-11-27T08:25:52.616Z,15.38
2022-11-27T08:31:00.179Z,17.40
2022-11-27T08:36:04.378Z,13.10
2022-11-27T08:41:09.012Z,14.43
2022-11-27T08:46:12.737Z,11.80
2022-11-27T08:51:16.691Z,12.32
2022-11-27T08:56:23.123Z,16.70
2022-11-27T09:01:31.002Z,13.57
2022-11-27T09:06:37.539Z,13.70
2022-11-27T09:11:40.719Z,17.33
2022-11-27T09:16:43.939Z,19.55
2022-11-27T09:21:47.141Z,16.17
2022-11-27T09:26:50.274Z,16.77
2022-11-27T09:31:53.539Z,14.73
2022-11-27T09:36:56.699Z,18.83
2022-11-27T09:42:02.367Z,15.15
2022-11-27T09:47:57.204Z,14.27
2022-11-27T09:53:07.236Z,11.35
2022-11-27T09:58:18.567Z,16.83
2022-11-27T10:03:27.473Z,15.63
2022-11-27T10:08:52.955Z,13.57
2022-11-27T10:14:20.105Z,13.37
2022-11-27T10:19:48.024Z,11.00
2022-11-27T10:25:03.284Z,15.35
2022-11-27T10:30:17.352Z,11.80
2022-11-27T10:35:26.265Z,14.60
2022-11-27T10:40:38.950Z,16.00
2022-11-27T10:45:59.884Z,19.70
2022-11-27T10:58:59.458Z,16.53
2022-11-27T11:04:35.774Z,16.30
2022-11-27T11:09:35.301Z,13.77
2022-11-27T11:14:39.005Z,13.27
2022-11-27T11:19:44.129Z,11.18
2022-11-27T11:24:52.735Z,12.00
2022-11-27T11:30:01.019Z,12.90
2022-11-27T11:35:27.623Z,10.53
2022-11-27T11:40:37.194Z,13.40
2022-11-27T11:45:49.004Z,14.90
2022-11-27T11:51:25.023Z,13.80
2022-11-27T11:57:01.653Z,17.20
2022-11-27T12:02:04.844Z,12.57
2022-11-27T12:07:28.183Z,16.25
2022-11-27T12:13:00.286Z,15.77
2022-11-27T12:18:37.346Z,12.93
2022-11-27T12:23:59.052Z,11.27
2022-11-27T12:29:27.116Z,10.93
2022-11-27T12:35:12.228Z,12.30
2022-11-27T12:40:15.281Z,14.77
2022-11-27T12:45:24.382Z,17.40
2022-11-27T12:51:03.075Z,23.30
2022-11-27T12:56:24.857Z,12.20
2022-11-27T13:01:38.800Z,13.52
2022-11-27T13:06:56.154Z,20.85
2022-11-27T13:12:02.203Z,15.73
2022-11-27T13:17:16.003Z,12.10
2022-11-27T13:22:33.416Z,12.63
2022-11-27T13:27:38.555Z,12.15
2022-11-27T13:32:48.192Z,13.02
2022-11-27T13:38:00.694Z,13.53
2022-11-27T13:43:16.708Z,12.40
2022-11-27T13:48:32.227Z,15.10
2022-11-27T13:53:41.319Z,14.98
2022-11-27T13:58:44.625Z,14.20
2022-11-27T14:03:48.260Z,9.93
2022-11-27T14:09:11.714Z,15.25
2022-11-27T14:14:25.518Z,14.77
2022-11-27T14:19:34.794Z,14.82
2022-11-27T14:24:43.954Z,11.40
2022-11-27T14:29:48.581Z,13.67
2022-11-27T14:34:51.692Z,8.82
2022-11-27T14:39:55.922Z,9.67
2022-11-27T14:45:08.124Z,9.02
2022-11-27T14:55:34.939Z,6.50
2022-11-27T15:00:38.142Z,7.60
2022-11-27T15:05:41.388Z,5.93
2022-11-27T15:10:44.633Z,5.75
2022-11-27T15:16:07.545Z,6.43
2022-11-27T15:21:13.058Z,13.10
2022-11-27T15:26:35.058Z,10.55
2022-11-27T15:31:38.862Z,8.30
2022-11-27T15:36:49.851Z,11.07
2022-11-27T15:41:59.893Z,6.10
2022-11-27T15:47:05.099Z,6.37
2022-11-27T15:52:08.249Z,7.18
2022-11-27T15:57:12.449Z,8.33
2022-11-27T16:02:18.013Z,11.48
2022-11-27T16:07:21.354Z,11.98
2022-11-27T16:12:24.839Z,9.73
2022-11-27T16:17:28.622Z,7.25
2022-11-27T16:22:32.837Z,13.50
2022-11-27T16:27:36.458Z,8.13
2022-11-27T16:32:42.973Z,8.63
2022-11-27T16:37:46.367Z,12.33
2022-11-27T16:42:49.692Z,8.25
2022-11-27T16:47:54.539Z,9.67
2022-11-27T16:52:59.096Z,9.77
2022-11-27T16:58:02.396Z,8.50
2022-11-27T17:03:05.597Z,5.50
2022-11-27T17:08:08.813Z,13.32
2022-11-27T17:13:11.991Z,6.17
2022-11-27T17:18:17.154Z,6.93
2022-11-27T17:23:20.545Z,7.80
2022-11-27T17:28:23.915Z,4.77
2022-11-27T17:33:28.827Z,6.30
2022-11-27T17:38:36.269Z,7.47
2022-11-27T17:43:42.738Z,6.22
2022-11-27T17:48:46.025Z,6.30
2022-11-27T17:53:49.680Z,4.80
2022-11-27T17:58:53.863Z,5.85
2022-11-27T18:04:00.656Z,5.00
2022-11-27T18:09:06.159Z,6.95
2022-11-27T18:14:13.827Z,4.18
2022-11-27T18:19:20.047Z,5.27
2022-11-27T18:24:24.616Z,5.25
2022-11-27T18:29:28.224Z,7.13
2022-11-27T18:34:31.469Z,7.90
2022-11-27T18:39:35.872Z,7.57
2022-11-27T18:44:46.051Z,4.97
2022-11-27T18:49:49.477Z,4.13
2022-11-27T18:54:52.669Z,6.10
2022-11-27T18:59:55.821Z,4.85
2022-11-27T19:04:59.084Z,5.03
2022-11-27T19:10:02.769Z,6.60
2022-11-27T19:15:07.361Z,6.80
2022-11-27T19:20:28.205Z,6.00
2022-11-27T19:25:44.558Z,4.95
2022-11-27T19:30:49.076Z,5.22
2022-11-27T19:36:00.199Z,7.83
2022-11-27T19:41:09.388Z,4.45
2022-11-27T19:46:18.239Z,9.13
2022-11-27T19:51:21.564Z,4.68
2022-11-27T19:56:28.167Z,5.63
2022-11-27T20:01:32.588Z,6.87
2022-11-27T20:06:35.947Z,5.90
2022-11-27T20:11:39.646Z,6.50
2022-11-27T20:16:43.502Z,4.82
2022-11-27T20:21:47.423Z,7.00
2022-11-27T20:26:57.696Z,6.07
2022-11-27T20:32:01.244Z,4.47
2022-11-27T20:37:04.916Z,8.83
2022-11-27T20:42:08.342Z,5.43
2022-11-27T20:47:12.418Z,4.85
2022-11-27T20:52:15.550Z,4.83
2022-11-27T20:57:19.046Z,6.30
2022-11-27T21:02:22.352Z,4.70
2022-11-27T21:07:25.702Z,3.88
2022-11-27T21:12:29.227Z,6.75
2022-11-27T21:17:32.760Z,4.17
2022-11-27T21:22:36.245Z,5.57
2022-11-27T21:27:39.780Z,4.73
2022-11-27T21:32:44.557Z,7.10
2022-11-27T21:37:50.777Z,7.28
2022-11-27T21:42:54.019Z,4.80
2022-11-27T21:47:57.248Z,3.25
2022-11-27T21:53:00.514Z,5.30
2022-11-27T21:58:04.657Z,5.35
2022-11-27T22:03:07.846Z,6.90
2022-11-27T22:08:10.986Z,5.53
2022-11-27T22:13:14.114Z,5.18
2022-11-27T22:18:17.697Z,5.37
2022-11-27T22:23:20.856Z,3.72
2022-11-27T22:28:25.754Z,3.55
2022-11-27T22:33:28.936Z,3.83
2022-11-27T22:38:32.075Z,7.47
2022-11-27T22:43:36.558Z,4.33
2022-11-27T22:48:39.994Z,4.68
2022-11-27T22:53:44.191Z,5.20
2022-11-27T22:58:48.030Z,5.03
2022-11-27T23:03:55.404Z,5.03
2022-11-27T23:08:58.776Z,5.03
2022-11-27T23:14:02.102Z,5.32
2022-11-27T23:19:05.371Z,3.88
2022-11-27T23:24:13.104Z,3.70
2022-11-27T23:29:18.619Z,4.03
2022-11-27T23:34:21.801Z,3.97
2022-11-27T23:39:24.963Z,4.80
2022-11-27T23:44:31.077Z,3.72
2022-11-27T23:49:34.174Z,3.90
2022-11-27T23:54:37.324Z,3.90
2022-11-27T23:59:40.452Z,6.87
